Terminal Aerodrome Forecast
Issued by NWS

Home | Current Version | Previous Version | Text Only | Print | Product List | Glossary On
Versions: 1 2 3 4 5 6 7 8 9 10 11 12 13 14 15 16 17 18 19 20 21 22 23 24 25 26 27 28 29 30 31 32 33 34 35 36 37 38 39 40 41 42 43 44 45 46 47 48 49 50
000
FTUS45 KVEF 292050 AAA
TAFLAS
TAF AMD
KLAS 292050Z 2921/3018 VRB06KT P6SM VCSH FEW080 SCT100 BKN250
     FM300000 23010G18KT P6SM FEW080 SCT100 BKN250
     FM300300 22011KT P6SM SCT100 BKN150
     FM300900 35014KT P6SM -RA SCT060 BKN100
     FM301200 35012KT P6SM -RA FEW040 BKN050 OVC090=

USA.gov is the U.S. government's official web portal to all federal, state and local government web resources and services.